sensor_id;sensor_type;location;lat;lon;timestamp;temperature;humidity
32612;DHT22;19030;49.478;8.986;2023-05-07T00:01:12;12.70;99.90
32612;DHT22;19030;49.478;8.986;2023-05-07T00:03:13;12.70;99.90
32612;DHT22;19030;49.478;8.986;2023-05-07T00:05:14;12.70;99.90
32612;DHT22;19030;49.478;8.986;2023-05-07T00:07:15;12.70;99.90
32612;DHT22;19030;49.478;8.986;2023-05-07T00:09:15;12.70;99.90
32612;DHT22;19030;49.478;8.986;2023-05-07T00:11:16;12.70;99.90
32612;DHT22;19030;49.478;8.986;2023-05-07T00:13:17;12.60;99.90
32612;DHT22;19030;49.478;8.986;2023-05-07T00:15:21;12.60;99.90
32612;DHT22;19030;49.478;8.986;2023-05-07T00:17:22;12.60;99.90
32612;DHT22;19030;49.478;8.986;2023-05-07T00:19:22;12.50;99.90
32612;DHT22;19030;49.478;8.986;2023-05-07T00:21:23;12.50;99.90
32612;DHT22;19030;49.478;8.986;2023-05-07T00:23:26;12.50;99.90
32612;DHT22;19030;49.478;8.986;2023-05-07T00:25:27;12.40;99.90
32612;DHT22;19030;49.478;8.986;2023-05-07T00:27:27;12.40;99.90
32612;DHT22;19030;49.478;8.986;2023-05-07T00:29:28;12.40;99.90
32612;DHT22;19030;49.478;8.986;2023-05-07T00:31:28;12.40;99.90
32612;DHT22;19030;49.478;8.986;2023-05-07T00:33:29;12.40;99.90
32612;DHT22;19030;49.478;8.986;2023-05-07T00:35:30;12.30;99.90
32612;DHT22;19030;49.478;8.986;2023-05-07T00:37:30;12.30;99.90
32612;DHT22;19030;49.478;8.986;2023-05-07T00:39:31;12.30;99.90
32612;DHT22;19030;49.478;8.986;2023-05-07T00:41:32;12.30;99.90
32612;DHT22;19030;49.478;8.986;2023-05-07T00:43:32;12.30;99.90
32612;DHT22;19030;49.478;8.986;2023-05-07T00:45:33;12.30;99.90
32612;DHT22;19030;49.478;8.986;2023-05-07T00:47:34;12.30;99.90
32612;DHT22;19030;49.478;8.986;2023-05-07T00:49:38;12.30;99.90
32612;DHT22;19030;49.478;8.986;2023-05-07T00:51:39;12.30;99.90
32612;DHT22;19030;49.478;8.986;2023-05-07T00:53:39;12.30;99.90
32612;DHT22;19030;49.478;8.986;2023-05-07T00:55:40;12.20;99.90
32612;DHT22;19030;49.478;8.986;2023-05-07T00:57:41;12.20;99.90
32612;DHT22;19030;49.478;8.986;2023-05-07T00:59:42;12.20;99.90
32612;DHT22;19030;49.478;8.986;2023-05-07T01:01:43;12.20;99.90
32612;DHT22;19030;49.478;8.986;2023-05-07T01:03:43;12.10;99.90
32612;DHT22;19030;49.478;8.986;2023-05-07T01:05:46;12.10;99.90
32612;DHT22;19030;49.478;8.986;2023-05-07T01:07:47;12.10;99.90
32612;DHT22;19030;49.478;8.986;2023-05-07T01:09:49;12.10;99.90
32612;DHT22;19030;49.478;8.986;2023-05-07T01:11:50;12.00;99.90
32612;DHT22;19030;49.478;8.986;2023-05-07T01:13:52;12.00;99.90
32612;DHT22;19030;49.478;8.986;2023-05-07T01:15:53;12.00;99.90
32612;DHT22;19030;49.478;8.986;2023-05-07T01:17:55;12.00;99.90
32612;DHT22;19030;49.478;8.986;2023-05-07T01:20:04;12.00;99.90
32612;DHT22;19030;49.478;8.986;2023-05-07T01:22:08;12.00;99.90
32612;DHT22;19030;49.478;8.986;2023-05-07T01:24:19;12.00;99.90
32612;DHT22;19030;49.478;8.986;2023-05-07T01:26:20;11.90;99.90
32612;DHT22;19030;49.478;8.986;2023-05-07T01:28:22;11.90;99.90
32612;DHT22;19030;49.478;8.986;2023-05-07T01:30:23;11.90;99.90
32612;DHT22;19030;49.478;8.986;2023-05-07T01:32:52;11.90;99.90
32612;DHT22;19030;49.478;8.986;2023-05-07T01:34:54;11.90;99.90
32612;DHT22;19030;49.478;8.986;2023-05-07T01:36:56;11.90;99.90
32612;DHT22;19030;49.478;8.986;2023-05-07T01:38:59;11.80;99.90
32612;DHT22;19030;49.478;8.986;2023-05-07T01:41:00;11.80;99.90
32612;DHT22;19030;49.478;8.986;2023-05-07T01:43:02;11.80;99.90
32612;DHT22;19030;49.478;8.986;2023-05-07T01:45:03;11.80;99.90
32612;DHT22;19030;49.478;8.986;2023-05-07T01:47:04;11.80;99.90
32612;DHT22;19030;49.478;8.986;2023-05-07T01:49:05;11.80;99.90
32612;DHT22;19030;49.478;8.986;2023-05-07T01:51:06;11.70;99.90
32612;DHT22;19030;49.478;8.986;2023-05-07T01:53:07;11.70;99.90
32612;DHT22;19030;49.478;8.986;2023-05-07T01:55:08;11.70;99.90
32612;DHT22;19030;49.478;8.986;2023-05-07T01:57:08;11.70;99.90
32612;DHT22;19030;49.478;8.986;2023-05-07T01:59:09;11.60;99.90
32612;DHT22;19030;49.478;8.986;2023-05-07T02:01:10;11.60;99.90
32612;DHT22;19030;49.478;8.986;2023-05-07T02:03:11;11.60;99.90
32612;DHT22;19030;49.478;8.986;2023-05-07T02:05:22;11.60;99.90
32612;DHT22;19030;49.478;8.986;2023-05-07T02:07:30;11.50;99.90
32612;DHT22;19030;49.478;8.986;2023-05-07T02:09:31;11.50;99.90
32612;DHT22;19030;49.478;8.986;2023-05-07T02:11:32;11.50;99.90
32612;DHT22;19030;49.478;8.986;2023-05-07T02:13:33;11.50;99.90
32612;DHT22;19030;49.478;8.986;2023-05-07T02:15:35;11.40;99.90
32612;DHT22;19030;49.478;8.986;2023-05-07T02:18:02;11.40;99.90
32612;DHT22;19030;49.478;8.986;2023-05-07T02:20:03;11.40;99.90
32612;DHT22;19030;49.478;8.986;2023-05-07T02:22:04;11.40;99.90
32612;DHT22;19030;49.478;8.986;2023-05-07T02:24:05;11.40;99.90
32612;DHT22;19030;49.478;8.986;2023-05-07T02:26:05;11.40;99.90
32612;DHT22;19030;49.478;8.986;2023-05-07T02:28:07;11.40;99.90
32612;DHT22;19030;49.478;8.986;2023-05-07T02:30:19;11.40;99.90
32612;DHT22;19030;49.478;8.986;2023-05-07T02:32:26;11.40;99.90
32612;DHT22;19030;49.478;8.986;2023-05-07T02:34:27;11.40;99.90
32612;DHT22;19030;49.478;8.986;2023-05-07T02:36:27;11.40;99.90
32612;DHT22;19030;49.478;8.986;2023-05-07T02:38:35;11.40;99.90
32612;DHT22;19030;49.478;8.986;2023-05-07T02:40:36;11.40;99.90
32612;DHT22;19030;49.478;8.986;2023-05-07T02:42:39;11.30;99.90
32612;DHT22;19030;49.478;8.986;2023-05-07T02:44:39;11.30;99.90
32612;DHT22;19030;49.478;8.986;2023-05-07T02:46:40;11.30;99.90
32612;DHT22;19030;49.478;8.986;2023-05-07T02:48:44;11.30;99.90
32612;DHT22;19030;49.478;8.986;2023-05-07T02:50:45;11.30;99.90
32612;DHT22;19030;49.478;8.986;2023-05-07T02:52:47;11.30;99.90
32612;DHT22;19030;49.478;8.986;2023-05-07T02:54:48;11.30;99.90
32612;DHT22;19030;49.478;8.986;2023-05-07T02:56:49;11.20;99.90
32612;DHT22;19030;49.478;8.986;2023-05-07T02:58:49;11.20;99.90
32612;DHT22;19030;49.478;8.986;2023-05-07T03:00:52;11.30;99.90
32612;DHT22;19030;49.478;8.986;2023-05-07T03:03:02;11.30;99.90
32612;DHT22;19030;49.478;8.986;2023-05-07T03:05:03;11.30;99.90
32612;DHT22;19030;49.478;8.986;2023-05-07T03:07:04;11.20;99.90
32612;DHT22;19030;49.478;8.986;2023-05-07T03:09:04;11.30;99.90
32612;DHT22;19030;49.478;8.986;2023-05-07T03:11:05;11.20;99.90
32612;DHT22;19030;49.478;8.986;2023-05-07T03:13:06;11.20;99.90
32612;DHT22;19030;49.478;8.986;2023-05-07T03:15:07;11.20;99.90
32612;DHT22;19030;49.478;8.986;2023-05-07T03:17:08;11.20;99.90
32612;DHT22;19030;49.478;8.986;2023-05-07T03:19:09;11.20;99.90
32612;DHT22;19030;49.478;8.986;2023-05-07T03:21:09;11.20;99.90
32612;DHT22;19030;49.478;8.986;2023-05-07T03:23:10;11.10;99.90
32612;DHT22;19030;49.478;8.986;2023-05-07T03:25:10;11.10;99.90
32612;DHT22;19030;49.478;8.986;2023-05-07T03:27:11;11.10;99.90
32612;DHT22;19030;49.478;8.986;2023-05-07T03:29:12;11.10;99.90
32612;DHT22;19030;49.478;8.986;2023-05-07T03:31:13;11.00;99.90
32612;DHT22;19030;49.478;8.986;2023-05-07T03:33:13;11.00;99.90
32612;DHT22;19030;49.478;8.986;2023-05-07T03:35:14;11.00;99.90
32612;DHT22;19030;49.478;8.986;2023-05-07T03:37:15;11.00;99.90
32612;DHT22;19030;49.478;8.986;2023-05-07T03:39:17;11.00;99.90
32612;DHT22;19030;49.478;8.986;2023-05-07T03:41:17;11.00;99.90
32612;DHT22;19030;49.478;8.986;2023-05-07T03:43:19;10.90;99.90
32612;DHT22;19030;49.478;8.986;2023-05-07T03:45:25;10.90;99.90
32612;DHT22;19030;49.478;8.986;2023-05-07T03:47:34;10.90;99.90
32612;DHT22;19030;49.478;8.986;2023-05-07T03:49:35;10.90;99.90
32612;DHT22;19030;49.478;8.986;2023-05-07T03:51:36;10.90;99.90
32612;DHT22;19030;49.478;8.986;2023-05-07T03:53:38;10.90;99.90
32612;DHT22;19030;49.478;8.986;2023-05-07T03:55:39;10.80;99.90
32612;DHT22;19030;49.478;8.986;2023-05-07T03:57:40;10.80;99.90
32612;DHT22;19030;49.478;8.986;2023-05-07T03:59:40;10.90;99.90
32612;DHT22;19030;49.478;8.986;2023-05-07T04:01:42;10.80;99.90
32612;DHT22;19030;49.478;8.986;2023-05-07T04:03:48;10.80;99.90
32612;DHT22;19030;49.478;8.986;2023-05-07T04:05:49;10.80;99.90
32612;DHT22;19030;49.478;8.986;2023-05-07T04:07:49;10.80;99.90
32612;DHT22;19030;49.478;8.986;2023-05-07T04:09:54;10.70;99.90
32612;DHT22;19030;49.478;8.986;2023-05-07T04:11:55;10.70;99.90
32612;DHT22;19030;49.478;8.986;2023-05-07T04:13:56;10.80;99.90
32612;DHT22;19030;49.478;8.986;2023-05-07T04:15:58;10.80;99.90
32612;DHT22;19030;49.478;8.986;2023-05-07T04:18:00;10.80;99.90
32612;DHT22;19030;49.478;8.986;2023-05-07T04:20:00;10.90;99.90
32612;DHT22;19030;49.478;8.986;2023-05-07T04:22:02;10.90;99.90
32612;DHT22;19030;49.478;8.986;2023-05-07T04:24:04;10.90;99.90
32612;DHT22;19030;49.478;8.986;2023-05-07T04:26:04;10.90;99.90
32612;DHT22;19030;49.478;8.986;2023-05-07T04:28:10;10.90;99.90
32612;DHT22;19030;49.478;8.986;2023-05-07T04:30:12;11.00;99.90
32612;DHT22;19030;49.478;8.986;2023-05-07T04:32:13;11.00;99.90
32612;DHT22;19030;49.478;8.986;2023-05-07T04:34:15;11.00;99.90
32612;DHT22;19030;49.478;8.986;2023-05-07T04:36:16;11.10;99.90
32612;DHT22;19030;49.478;8.986;2023-05-07T04:38:23;11.10;99.90
32612;DHT22;19030;49.478;8.986;2023-05-07T04:40:25;11.10;99.90
32612;DHT22;19030;49.478;8.986;2023-05-07T04:42:26;11.20;99.90
32612;DHT22;19030;49.478;8.986;2023-05-07T04:44:27;11.20;99.90
32612;DHT22;19030;49.478;8.986;2023-05-07T04:46:29;11.30;99.90
32612;DHT22;19030;49.478;8.986;2023-05-07T04:48:31;11.40;99.90
32612;DHT22;19030;49.478;8.986;2023-05-07T04:50:33;11.50;99.90
32612;DHT22;19030;49.478;8.986;2023-05-07T04:52:36;11.60;99.90
32612;DHT22;19030;49.478;8.986;2023-05-07T04:54:37;11.70;99.90
32612;DHT22;19030;49.478;8.986;2023-05-07T04:56:39;11.80;99.90
32612;DHT22;19030;49.478;8.986;2023-05-07T04:58:39;11.80;99.90
32612;DHT22;19030;49.478;8.986;2023-05-07T05:00:41;11.90;99.90
32612;DHT22;19030;49.478;8.986;2023-05-07T05:02:42;12.10;99.90
32612;DHT22;19030;49.478;8.986;2023-05-07T05:04:44;12.20;99.90
32612;DHT22;19030;49.478;8.986;2023-05-07T05:06:44;12.30;99.90
32612;DHT22;19030;49.478;8.986;2023-05-07T05:08:47;12.30;99.90
32612;DHT22;19030;49.478;8.986;2023-05-07T05:10:48;12.40;99.90
32612;DHT22;19030;49.478;8.986;2023-05-07T05:12:50;12.40;99.90
32612;DHT22;19030;49.478;8.986;2023-05-07T05:14:50;12.50;99.90
32612;DHT22;19030;49.478;8.986;2023-05-07T05:16:51;12.60;99.90
32612;DHT22;19030;49.478;8.986;2023-05-07T05:18:52;12.60;99.90
32612;DHT22;19030;49.478;8.986;2023-05-07T05:20:55;12.70;99.90
32612;DHT22;19030;49.478;8.986;2023-05-07T05:22:56;12.70;99.90
32612;DHT22;19030;49.478;8.986;2023-05-07T05:24:56;12.80;99.90
32612;DHT22;19030;49.478;8.986;2023-05-07T05:26:57;12.80;99.90
32612;DHT22;19030;49.478;8.986;2023-05-07T05:29:00;12.80;99.90
32612;DHT22;19030;49.478;8.986;2023-05-07T05:31:03;12.90;99.90
32612;DHT22;19030;49.478;8.986;2023-05-07T05:33:07;12.90;99.90
32612;DHT22;19030;49.478;8.986;2023-05-07T05:35:08;13.00;99.90
32612;DHT22;19030;49.478;8.986;2023-05-07T05:37:10;13.20;99.90
32612;DHT22;19030;49.478;8.986;2023-05-07T05:39:11;13.30;99.90
32612;DHT22;19030;49.478;8.986;2023-05-07T05:41:11;13.50;99.90
32612;DHT22;19030;49.478;8.986;2023-05-07T05:43:13;13.60;99.90
32612;DHT22;19030;49.478;8.986;2023-05-07T05:45:13;13.70;99.90
32612;DHT22;19030;49.478;8.986;2023-05-07T05:47:14;13.90;99.90
32612;DHT22;19030;49.478;8.986;2023-05-07T05:49:15;14.00;99.90
32612;DHT22;19030;49.478;8.986;2023-05-07T05:51:16;14.10;99.90
32612;DHT22;19030;49.478;8.986;2023-05-07T05:53:17;14.20;99.90
32612;DHT22;19030;49.478;8.986;2023-05-07T05:55:18;14.30;99.90
32612;DHT22;19030;49.478;8.986;2023-05-07T05:57:20;14.40;99.90
32612;DHT22;19030;49.478;8.986;2023-05-07T05:59:22;14.60;99.90
32612;DHT22;19030;49.478;8.986;2023-05-07T06:01:23;14.80;99.90
32612;DHT22;19030;49.478;8.986;2023-05-07T06:03:25;14.90;99.90
32612;DHT22;19030;49.478;8.986;2023-05-07T06:05:27;15.00;99.90
32612;DHT22;19030;49.478;8.986;2023-05-07T06:07:30;15.10;99.90
32612;DHT22;19030;49.478;8.986;2023-05-07T06:09:30;15.20;99.90
32612;DHT22;19030;49.478;8.986;2023-05-07T06:11:31;15.30;99.90
32612;DHT22;19030;49.478;8.986;2023-05-07T06:13:32;15.40;99.90
32612;DHT22;19030;49.478;8.986;2023-05-07T06:15:33;15.50;99.90
32612;DHT22;19030;49.478;8.986;2023-05-07T06:17:39;15.50;99.90
32612;DHT22;19030;49.478;8.986;2023-05-07T06:19:40;15.70;99.90
32612;DHT22;19030;49.478;8.986;2023-05-07T06:21:41;15.90;99.90
32612;DHT22;19030;49.478;8.986;2023-05-07T06:23:42;16.00;99.90
32612;DHT22;19030;49.478;8.986;2023-05-07T06:25:49;16.20;99.90
32612;DHT22;19030;49.478;8.986;2023-05-07T06:27:51;16.30;99.90
32612;DHT22;19030;49.478;8.986;2023-05-07T06:29:51;16.30;99.90
32612;DHT22;19030;49.478;8.986;2023-05-07T06:31:55;16.30;99.90
32612;DHT22;19030;49.478;8.986;2023-05-07T06:33:57;16.50;99.90
32612;DHT22;19030;49.478;8.986;2023-05-07T06:36:05;16.60;99.90
32612;DHT22;19030;49.478;8.986;2023-05-07T06:38:06;16.80;99.90
32612;DHT22;19030;49.478;8.986;2023-05-07T06:40:07;17.00;99.90
32612;DHT22;19030;49.478;8.986;2023-05-07T06:42:10;17.10;99.90
32612;DHT22;19030;49.478;8.986;2023-05-07T06:44:15;17.30;99.90
32612;DHT22;19030;49.478;8.986;2023-05-07T06:46:19;17.50;99.90
32612;DHT22;19030;49.478;8.986;2023-05-07T06:48:21;17.60;99.90
32612;DHT22;19030;49.478;8.986;2023-05-07T06:50:31;17.70;99.90
32612;DHT22;19030;49.478;8.986;2023-05-07T06:52:32;17.80;99.90
32612;DHT22;19030;49.478;8.986;2023-05-07T06:54:32;17.80;99.90
32612;DHT22;19030;49.478;8.986;2023-05-07T06:56:33;17.80;99.90
32612;DHT22;19030;49.478;8.986;2023-05-07T06:58:38;17.80;99.90
32612;DHT22;19030;49.478;8.986;2023-05-07T07:00:39;18.00;99.90
32612;DHT22;19030;49.478;8.986;2023-05-07T07:02:41;18.10;99.90
32612;DHT22;19030;49.478;8.986;2023-05-07T07:04:43;18.20;99.90
32612;DHT22;19030;49.478;8.986;2023-05-07T07:06:45;18.20;99.90
32612;DHT22;19030;49.478;8.986;2023-05-07T07:08:49;18.20;99.90
32612;DHT22;19030;49.478;8.986;2023-05-07T07:10:51;18.20;99.90
32612;DHT22;19030;49.478;8.986;2023-05-07T07:12:52;18.30;99.90
32612;DHT22;19030;49.478;8.986;2023-05-07T07:14:53;18.50;99.90
32612;DHT22;19030;49.478;8.986;2023-05-07T07:16:54;18.70;99.90
32612;DHT22;19030;49.478;8.986;2023-05-07T07:18:56;18.80;99.90
32612;DHT22;19030;49.478;8.986;2023-05-07T07:20:57;18.90;99.90
32612;DHT22;19030;49.478;8.986;2023-05-07T07:22:57;18.90;99.90
32612;DHT22;19030;49.478;8.986;2023-05-07T07:24:58;18.90;99.90
32612;DHT22;19030;49.478;8.986;2023-05-07T07:26:59;18.90;99.90
32612;DHT22;19030;49.478;8.986;2023-05-07T07:29:00;18.90;99.90
32612;DHT22;19030;49.478;8.986;2023-05-07T07:31:01;19.00;99.90
32612;DHT22;19030;49.478;8.986;2023-05-07T07:33:03;19.10;99.90
32612;DHT22;19030;49.478;8.986;2023-05-07T07:35:07;19.20;99.90
32612;DHT22;19030;49.478;8.986;2023-05-07T07:37:07;19.20;99.90
32612;DHT22;19030;49.478;8.986;2023-05-07T07:39:10;19.20;99.90
32612;DHT22;19030;49.478;8.986;2023-05-07T07:41:11;19.40;99.90
32612;DHT22;19030;49.478;8.986;2023-05-07T07:43:12;19.60;99.90
32612;DHT22;19030;49.478;8.986;2023-05-07T07:45:13;19.90;99.90
32612;DHT22;19030;49.478;8.986;2023-05-07T07:47:18;20.20;99.90
32612;DHT22;19030;49.478;8.986;2023-05-07T07:49:20;20.60;99.90
32612;DHT22;19030;49.478;8.986;2023-05-07T07:51:21;21.00;99.90
32612;DHT22;19030;49.478;8.986;2023-05-07T07:53:22;21.40;99.90
32612;DHT22;19030;49.478;8.986;2023-05-07T07:55:23;22.40;99.90
32612;DHT22;19030;49.478;8.986;2023-05-07T07:57:26;23.50;98.90
32612;DHT22;19030;49.478;8.986;2023-05-07T07:59:27;24.00;95.50
32612;DHT22;19030;49.478;8.986;2023-05-07T08:01:30;24.00;92.50
32612;DHT22;19030;49.478;8.986;2023-05-07T08:03:30;23.50;91.70
32612;DHT22;19030;49.478;8.986;2023-05-07T08:05:33;23.20;92.00
32612;DHT22;19030;49.478;8.986;2023-05-07T08:07:34;23.10;92.40
32612;DHT22;19030;49.478;8.986;2023-05-07T08:09:35;22.90;92.20
32612;DHT22;19030;49.478;8.986;2023-05-07T08:11:37;22.90;92.00
32612;DHT22;19030;49.478;8.986;2023-05-07T08:13:39;23.00;91.30
32612;DHT22;19030;49.478;8.986;2023-05-07T08:15:39;23.00;91.00
32612;DHT22;19030;49.478;8.986;2023-05-07T08:17:40;23.10;91.70
32612;DHT22;19030;49.478;8.986;2023-05-07T08:19:42;23.10;91.50
32612;DHT22;19030;49.478;8.986;2023-05-07T08:21:46;23.10;91.10
32612;DHT22;19030;49.478;8.986;2023-05-07T08:23:48;23.00;90.30
32612;DHT22;19030;49.478;8.986;2023-05-07T08:25:49;23.00;90.40
32612;DHT22;19030;49.478;8.986;2023-05-07T08:27:51;23.00;90.30
32612;DHT22;19030;49.478;8.986;2023-05-07T08:29:51;22.90;90.40
32612;DHT22;19030;49.478;8.986;2023-05-07T08:31:54;22.90;90.00
32612;DHT22;19030;49.478;8.986;2023-05-07T08:33:55;23.10;89.00
32612;DHT22;19030;49.478;8.986;2023-05-07T08:35:56;23.10;87.30
32612;DHT22;19030;49.478;8.986;2023-05-07T08:37:57;22.90;87.70
32612;DHT22;19030;49.478;8.986;2023-05-07T08:39:58;22.90;90.00
32612;DHT22;19030;49.478;8.986;2023-05-07T08:42:04;22.90;88.20
32612;DHT22;19030;49.478;8.986;2023-05-07T08:44:12;23.00;89.20
32612;DHT22;19030;49.478;8.986;2023-05-07T08:46:17;23.10;88.40
32612;DHT22;19030;49.478;8.986;2023-05-07T08:48:22;23.30;86.80
32612;DHT22;19030;49.478;8.986;2023-05-07T08:50:31;23.60;85.10
32612;DHT22;19030;49.478;8.986;2023-05-07T08:52:32;23.70;84.00
32612;DHT22;19030;49.478;8.986;2023-05-07T08:54:34;24.00;82.60
32612;DHT22;19030;49.478;8.986;2023-05-07T08:56:37;24.40;81.30
32612;DHT22;19030;49.478;8.986;2023-05-07T08:58:40;24.60;78.00
32612;DHT22;19030;49.478;8.986;2023-05-07T09:00:41;24.50;79.10
32612;DHT22;19030;49.478;8.986;2023-05-07T09:02:42;24.40;78.10
32612;DHT22;19030;49.478;8.986;2023-05-07T09:04:44;24.50;79.30
32612;DHT22;19030;49.478;8.986;2023-05-07T09:06:45;24.50;79.80
32612;DHT22;19030;49.478;8.986;2023-05-07T09:08:52;24.60;79.90
32612;DHT22;19030;49.478;8.986;2023-05-07T09:10:55;24.50;76.50
32612;DHT22;19030;49.478;8.986;2023-05-07T09:12:57;24.30;77.40
32612;DHT22;19030;49.478;8.986;2023-05-07T09:14:59;24.00;78.40
32612;DHT22;19030;49.478;8.986;2023-05-07T09:17:00;23.90;81.40
32612;DHT22;19030;49.478;8.986;2023-05-07T09:19:01;23.70;80.90
32612;DHT22;19030;49.478;8.986;2023-05-07T09:21:02;23.80;80.20
32612;DHT22;19030;49.478;8.986;2023-05-07T09:23:03;24.00;79.20
32612;DHT22;19030;49.478;8.986;2023-05-07T09:25:06;24.20;80.20
32612;DHT22;19030;49.478;8.986;2023-05-07T09:27:07;24.40;78.80
32612;DHT22;19030;49.478;8.986;2023-05-07T09:29:10;24.60;77.20
32612;DHT22;19030;49.478;8.986;2023-05-07T09:31:11;24.80;75.00
32612;DHT22;19030;49.478;8.986;2023-05-07T09:33:12;25.30;72.90
32612;DHT22;19030;49.478;8.986;2023-05-07T09:35:17;26.00;70.70
32612;DHT22;19030;49.478;8.986;2023-05-07T09:37:21;26.90;67.30
32612;DHT22;19030;49.478;8.986;2023-05-07T09:39:25;27.50;61.90
32612;DHT22;19030;49.478;8.986;2023-05-07T09:41:26;27.70;59.60
32612;DHT22;19030;49.478;8.986;2023-05-07T09:43:45;27.60;59.50
32612;DHT22;19030;49.478;8.986;2023-05-07T09:45:48;27.60;58.90
32612;DHT22;19030;49.478;8.986;2023-05-07T09:47:55;27.40;59.00
32612;DHT22;19030;49.478;8.986;2023-05-07T09:49:59;27.00;58.10
32612;DHT22;19030;49.478;8.986;2023-05-07T09:52:04;26.60;59.40
32612;DHT22;19030;49.478;8.986;2023-05-07T09:54:12;26.40;61.60
32612;DHT22;19030;49.478;8.986;2023-05-07T09:56:16;26.10;60.10
32612;DHT22;19030;49.478;8.986;2023-05-07T09:58:18;26.10;61.30
32612;DHT22;19030;49.478;8.986;2023-05-07T10:00:21;26.40;59.00
32612;DHT22;19030;49.478;8.986;2023-05-07T10:02:23;26.50;58.30
32612;DHT22;19030;49.478;8.986;2023-05-07T10:04:27;26.70;58.20
32612;DHT22;19030;49.478;8.986;2023-05-07T10:06:29;26.90;57.80
32612;DHT22;19030;49.478;8.986;2023-05-07T10:08:31;27.70;56.50
32612;DHT22;19030;49.478;8.986;2023-05-07T10:10:33;28.50;53.80
32612;DHT22;19030;49.478;8.986;2023-05-07T10:12:35;29.20;52.90
32612;DHT22;19030;49.478;8.986;2023-05-07T10:14:42;30.00;51.10
32612;DHT22;19030;49.478;8.986;2023-05-07T10:16:43;30.60;48.80
32612;DHT22;19030;49.478;8.986;2023-05-07T10:18:49;30.90;47.00
32612;DHT22;19030;49.478;8.986;2023-05-07T10:20:54;30.60;45.60
32612;DHT22;19030;49.478;8.986;2023-05-07T10:22:59;30.80;46.50
32612;DHT22;19030;49.478;8.986;2023-05-07T10:25:21;30.60;46.20
32612;DHT22;19030;49.478;8.986;2023-05-07T10:27:24;30.50;46.50
32612;DHT22;19030;49.478;8.986;2023-05-07T10:29:30;30.80;47.00
32612;DHT22;19030;49.478;8.986;2023-05-07T10:31:50;30.70;46.30
32612;DHT22;19030;49.478;8.986;2023-05-07T10:33:54;30.50;45.40
32612;DHT22;19030;49.478;8.986;2023-05-07T10:35:59;30.30;45.30
32612;DHT22;19030;49.478;8.986;2023-05-07T10:38:03;29.70;45.70
32612;DHT22;19030;49.478;8.986;2023-05-07T10:40:07;29.60;46.50
32612;DHT22;19030;49.478;8.986;2023-05-07T10:42:13;29.90;45.60
32612;DHT22;19030;49.478;8.986;2023-05-07T10:44:27;29.90;45.60
32612;DHT22;19030;49.478;8.986;2023-05-07T10:46:30;30.10;45.50
32612;DHT22;19030;49.478;8.986;2023-05-07T10:51:18;30.20;44.40
32612;DHT22;19030;49.478;8.986;2023-05-07T10:53:22;30.00;44.00
32612;DHT22;19030;49.478;8.986;2023-05-07T10:55:32;30.10;44.20
32612;DHT22;19030;49.478;8.986;2023-05-07T10:57:44;30.20;45.00
32612;DHT22;19030;49.478;8.986;2023-05-07T10:59:51;30.00;43.90
32612;DHT22;19030;49.478;8.986;2023-05-07T11:02:02;29.40;43.80
32612;DHT22;19030;49.478;8.986;2023-05-07T11:04:25;28.90;45.00
32612;DHT22;19030;49.478;8.986;2023-05-07T11:06:40;28.90;45.20
32612;DHT22;19030;49.478;8.986;2023-05-07T11:10:56;29.60;45.20
32612;DHT22;19030;49.478;8.986;2023-05-07T11:13:04;30.30;43.10
32612;DHT22;19030;49.478;8.986;2023-05-07T11:15:14;30.20;42.70
32612;DHT22;19030;49.478;8.986;2023-05-07T11:17:17;30.20;43.00
32612;DHT22;19030;49.478;8.986;2023-05-07T11:19:49;30.30;43.40
32612;DHT22;19030;49.478;8.986;2023-05-07T11:21:51;30.60;43.50
32612;DHT22;19030;49.478;8.986;2023-05-07T11:24:10;30.70;41.60
32612;DHT22;19030;49.478;8.986;2023-05-07T11:26:20;30.50;42.20
32612;DHT22;19030;49.478;8.986;2023-05-07T11:28:22;30.90;42.00
32612;DHT22;19030;49.478;8.986;2023-05-07T11:30:34;30.70;41.70
32612;DHT22;19030;49.478;8.986;2023-05-07T11:32:36;31.10;41.90
32612;DHT22;19030;49.478;8.986;2023-05-07T11:34:37;31.00;41.90
32612;DHT22;19030;49.478;8.986;2023-05-07T11:36:42;30.70;42.30
32612;DHT22;19030;49.478;8.986;2023-05-07T11:38:44;30.70;41.90
32612;DHT22;19030;49.478;8.986;2023-05-07T11:40:56;30.10;41.40
32612;DHT22;19030;49.478;8.986;2023-05-07T11:42:57;29.50;43.00
32612;DHT22;19030;49.478;8.986;2023-05-07T11:44:57;28.90;42.90
32612;DHT22;19030;49.478;8.986;2023-05-07T11:46:58;28.50;44.30
32612;DHT22;19030;49.478;8.986;2023-05-07T11:49:00;28.40;44.70
32612;DHT22;19030;49.478;8.986;2023-05-07T11:51:03;28.50;43.90
32612;DHT22;19030;49.478;8.986;2023-05-07T11:53:07;28.40;44.40
32612;DHT22;19030;49.478;8.986;2023-05-07T11:55:08;28.50;45.70
32612;DHT22;19030;49.478;8.986;2023-05-07T11:57:14;28.60;44.00
32612;DHT22;19030;49.478;8.986;2023-05-07T11:59:18;28.80;44.30
32612;DHT22;19030;49.478;8.986;2023-05-07T12:01:19;28.70;44.40
32612;DHT22;19030;49.478;8.986;2023-05-07T12:03:20;28.50;45.30
32612;DHT22;19030;49.478;8.986;2023-05-07T12:05:21;28.30;45.50
32612;DHT22;19030;49.478;8.986;2023-05-07T12:07:23;28.10;46.10
32612;DHT22;19030;49.478;8.986;2023-05-07T12:09:24;28.00;46.40
32612;DHT22;19030;49.478;8.986;2023-05-07T12:11:26;27.90;47.50
32612;DHT22;19030;49.478;8.986;2023-05-07T12:13:26;27.80;47.80
32612;DHT22;19030;49.478;8.986;2023-05-07T12:15:27;27.80;48.80
32612;DHT22;19030;49.478;8.986;2023-05-07T12:17:28;27.80;47.40
32612;DHT22;19030;49.478;8.986;2023-05-07T12:19:30;28.20;47.00
32612;DHT22;19030;49.478;8.986;2023-05-07T12:21:30;28.30;45.90
32612;DHT22;19030;49.478;8.986;2023-05-07T12:23:31;28.20;45.90
32612;DHT22;19030;49.478;8.986;2023-05-07T12:25:35;27.90;46.70
32612;DHT22;19030;49.478;8.986;2023-05-07T12:27:40;27.60;48.30
32612;DHT22;19030;49.478;8.986;2023-05-07T12:29:44;27.40;49.00
32612;DHT22;19030;49.478;8.986;2023-05-07T12:31:46;27.40;48.20
32612;DHT22;19030;49.478;8.986;2023-05-07T12:33:47;27.20;48.80
32612;DHT22;19030;49.478;8.986;2023-05-07T12:35:48;27.00;49.40
32612;DHT22;19030;49.478;8.986;2023-05-07T12:37:55;26.90;50.00
32612;DHT22;19030;49.478;8.986;2023-05-07T12:40:06;26.70;51.20
32612;DHT22;19030;49.478;8.986;2023-05-07T12:42:07;26.50;51.20
32612;DHT22;19030;49.478;8.986;2023-05-07T12:44:08;26.50;51.40
32612;DHT22;19030;49.478;8.986;2023-05-07T12:46:09;26.50;51.80
32612;DHT22;19030;49.478;8.986;2023-05-07T12:48:10;26.50;52.40
32612;DHT22;19030;49.478;8.986;2023-05-07T12:50:11;26.40;51.10
32612;DHT22;19030;49.478;8.986;2023-05-07T12:52:12;26.40;52.50
32612;DHT22;19030;49.478;8.986;2023-05-07T12:54:27;26.40;52.50
32612;DHT22;19030;49.478;8.986;2023-05-07T12:56:31;26.50;52.90
32612;DHT22;19030;49.478;8.986;2023-05-07T12:58:34;26.50;52.90
32612;DHT22;19030;49.478;8.986;2023-05-07T13:00:37;26.40;52.40